KMRY/MRY METAR and TAF weather

Enter ICAO airport designator
Station Type Date Time Source
KMRY METAR 2019/04/25 11:54 UTC NOAA

KMRY 251154Z AUTO 24004KT 7SM OVC004 12/09 A2997 RMK AO2 SLP160 T01170094 10133 20117 55000


Station Type Date Time Source
KMRY Decoded METAR 2019/04/25 11:54 UTC NOAA

MONTEREY PENINSULA AIRPORT, CA, United States (KMRY) 36-35N 121-51W 66M
Apr 25, 2019 - 07:54 AM EDT / 2019.04.25 1154 UTC
Wind: from the WSW (240 degrees) at 5 MPH (4 KT):0
Visibility: 7 mile(s):0
Sky conditions: overcast
Temperature: 53.1 F (11.7 C)
Dew Point: 48.9 F (9.4 C)
Relative Humidity: 85%
Pressure (altimeter): 29.97 in. Hg (1014 hPa)
Pressure tendency: 0.00 inches (0.0 hPa) lower than three hours ago
ob: KMRY 251154Z AUTO 24004KT 7SM OVC004 12/09 A2997 RMK AO2 SLP160 T01170094 10133 20117 55000
cycle: 12

Station Type Date Time Source
KMRY TAF 2019/04/25 12:22 UTC NOAA

TAF KMRY 251120Z 2512/2612 VRB02KT P6SM OVC005
FM251500 VRB03KT P6SM SCT007 BKN012
FM251700 30005KT P6SM SCT250
FM252100 26010KT P6SM SCT250
FM260300 26005KT P6SM FEW007 BKN012
FM260600 24004KT P6SM OVC006

Example: see airport list